Detall de PIREP

Printer-friendly versionPDF version

[2017/02/06 11:12:00]
Flight IATA:CT3223
Pilot Number:012
Company ICAO:CAT
Aircraft Type:B763/F
PAX:264
Departing Airport: LEPA
Destination Airport: LPPT
Alternate Airport:LPFR
Online: VATSIM
Route:EPAMA UN733 WALLY UQ900 CCS EXONA
Flight Level:F380
No Slew and time accel
No pause
Crash detect
Detect pilot in Cockpit between each 30 and 45 minutes
11:12 Zero fuel Weight: 253785 Lbs, Fuel Weight: 29310 Lbs
11:12 VATSIM:LEPA 061100Z 32027G38KT 290V350 9999 FEW025 14/04 Q1017 WS ALL RWY NOSIG
11:12 VATSIM:LPPT 061100Z 23010KT 9999 FEW014 15/12 Q1031
11:14 Parking Brakes off
11:19 Take-off
11:19 Take off Weight: 281630 Lbs
11:19 Wind: 319º @ 036 Knots Heading: 248º
11:19 POS N39º 33´ 22´´ E002º 43´ 46´´
11:19 Flaps:2 at 177 Knots
11:19 Gear Up: 184 Knots
11:20 Flaps:1 at 215 Knots
11:20 Flaps:0 at 221 Knots
11:32 TOC
11:32 Fuel Weight: 22075 Lb
11:34 Wind:333º@068 Knots Heading: 273º Ground Speed: 435 Knots Altitude 38261 ft
11:49 Wind:332º@066 Knots Heading: 275º Ground Speed: 432 Knots Altitude 38248 ft
12:04 Wind:315º@038 Knots Heading: 270º Ground Speed: 447 Knots Altitude 38461 ft
12:19 Wind:295º@031 Knots Heading: 266º Ground Speed: 449 Knots Altitude 38500 ft
12:24 TOD
12:24 Fuel Weight: 14019 Lb
12:34 Wind:271º@026 Knots Heading: 294º Ground Speed: 326 Knots Altitude 11994 ft
12:42 Flaps:1 at 236 Knots
12:44 Flaps:2 at 189 Knots
12:44 Gear Down: 169 Knots
12:44 Flaps:3 at 160 Knots
12:45 Flaps:4 at 142 Knots
12:45 Flaps:5 at 142 Knots
12:47 Flaps:6 at 149 Knots
12:49 Wind:243º@010 Knots Heading: 205º Ground Speed: 137 Knots Altitude 1046 ft
12:50 TouchDown:Rate -347 ft/min Speed: 135 Knots
12:50 VATSIM:LPPT 061230Z 24011KT 210V270 9999 FEW015 16/11 Q1031
12:50 Land
12:50 Wind:243º@010 Knots
12:50 Heading: 206º
12:50 Flight Duration: 01:31
12:50 Landing Weight: 264942 Lbs
12:50 POS N38º 46´ 42´´ W009º 08´ 15´´
12:54 Parking brakes on
12:54 Block to Block Duration: 01:40
12:54 Final Fuel: 10438 Lbls
12:54 Spent Fuel: 18871 Lbls
12:54 Flight Length: 583 NM
12:54 TOD Land Length: 121 NM

Exportar CSV

Powered by Drupal - Modified by Danger4k